sensor_id;sensor_type;location;lat;lon;timestamp;temperature;humidity
62916;DHT22;49010;51.230;-2.306;2022-10-16T00:00:16;13.00;79.40
62916;DHT22;49010;51.230;-2.306;2022-10-16T00:04:00;13.00;79.40
62916;DHT22;49010;51.230;-2.306;2022-10-16T00:07:42;13.00;79.30
62916;DHT22;49010;51.230;-2.306;2022-10-16T00:11:26;13.10;79.50
62916;DHT22;49010;51.230;-2.306;2022-10-16T00:15:09;13.10;79.30
62916;DHT22;49010;51.230;-2.306;2022-10-16T00:18:51;13.10;79.10
62916;DHT22;49010;51.230;-2.306;2022-10-16T00:22:33;13.10;78.90
62916;DHT22;49010;51.230;-2.306;2022-10-16T00:26:16;13.00;78.60
62916;DHT22;49010;51.230;-2.306;2022-10-16T00:29:58;13.00;78.60
62916;DHT22;49010;51.230;-2.306;2022-10-16T00:33:42;12.90;78.40
62916;DHT22;49010;51.230;-2.306;2022-10-16T00:37:24;12.80;78.00
62916;DHT22;49010;51.230;-2.306;2022-10-16T00:41:09;12.80;78.00
62916;DHT22;49010;51.230;-2.306;2022-10-16T00:44:54;12.70;77.50
62916;DHT22;49010;51.230;-2.306;2022-10-16T00:48:37;12.70;77.10
62916;DHT22;49010;51.230;-2.306;2022-10-16T00:52:19;12.70;77.20
62916;DHT22;49010;51.230;-2.306;2022-10-16T00:56:02;12.60;77.10
62916;DHT22;49010;51.230;-2.306;2022-10-16T00:59:43;12.60;76.30
62916;DHT22;49010;51.230;-2.306;2022-10-16T01:03:31;12.50;75.60
62916;DHT22;49010;51.230;-2.306;2022-10-16T01:07:42;12.50;75.70
62916;DHT22;49010;51.230;-2.306;2022-10-16T01:15:59;12.50;75.50
62916;DHT22;49010;51.230;-2.306;2022-10-16T01:27:38;12.40;75.90
62916;DHT22;49010;51.230;-2.306;2022-10-16T01:31:27;12.30;76.10
62916;DHT22;49010;51.230;-2.306;2022-10-16T01:35:16;12.30;76.50
62916;DHT22;49010;51.230;-2.306;2022-10-16T01:39:01;12.20;76.60
62916;DHT22;49010;51.230;-2.306;2022-10-16T01:42:55;12.20;77.00
62916;DHT22;49010;51.230;-2.306;2022-10-16T01:46:43;12.10;77.20
62916;DHT22;49010;51.230;-2.306;2022-10-16T01:50:37;12.10;77.70
62916;DHT22;49010;51.230;-2.306;2022-10-16T01:54:23;12.10;77.60
62916;DHT22;49010;51.230;-2.306;2022-10-16T01:58:09;12.10;78.10
62916;DHT22;49010;51.230;-2.306;2022-10-16T02:02:05;12.00;78.00
62916;DHT22;49010;51.230;-2.306;2022-10-16T02:05:54;12.00;78.50
62916;DHT22;49010;51.230;-2.306;2022-10-16T02:09:37;11.90;78.80
62916;DHT22;49010;51.230;-2.306;2022-10-16T02:13:45;11.90;79.00
62916;DHT22;49010;51.230;-2.306;2022-10-16T02:17:28;11.80;79.10
62916;DHT22;49010;51.230;-2.306;2022-10-16T02:21:36;11.80;79.60
62916;DHT22;49010;51.230;-2.306;2022-10-16T02:25:31;11.70;79.40
62916;DHT22;49010;51.230;-2.306;2022-10-16T02:29:16;11.70;80.00
62916;DHT22;49010;51.230;-2.306;2022-10-16T02:33:00;11.60;80.20
62916;DHT22;49010;51.230;-2.306;2022-10-16T02:36:45;11.60;80.30
62916;DHT22;49010;51.230;-2.306;2022-10-16T02:40:27;11.50;80.50
62916;DHT22;49010;51.230;-2.306;2022-10-16T02:44:09;11.50;80.80
62916;DHT22;49010;51.230;-2.306;2022-10-16T02:47:52;11.50;81.00
62916;DHT22;49010;51.230;-2.306;2022-10-16T02:55:55;11.40;80.90
62916;DHT22;49010;51.230;-2.306;2022-10-16T02:59:37;11.40;81.10
62916;DHT22;49010;51.230;-2.306;2022-10-16T03:03:19;11.40;81.20
62916;DHT22;49010;51.230;-2.306;2022-10-16T03:07:01;11.40;81.20
62916;DHT22;49010;51.230;-2.306;2022-10-16T03:10:43;11.30;81.20
62916;DHT22;49010;51.230;-2.306;2022-10-16T03:14:25;11.30;81.10
62916;DHT22;49010;51.230;-2.306;2022-10-16T03:18:10;11.30;81.20
62916;DHT22;49010;51.230;-2.306;2022-10-16T03:21:52;11.30;81.10
62916;DHT22;49010;51.230;-2.306;2022-10-16T03:25:33;11.20;80.90
62916;DHT22;49010;51.230;-2.306;2022-10-16T03:29:15;11.20;80.90
62916;DHT22;49010;51.230;-2.306;2022-10-16T03:32:57;11.20;80.80
62916;DHT22;49010;51.230;-2.306;2022-10-16T03:36:39;11.20;80.80
62916;DHT22;49010;51.230;-2.306;2022-10-16T03:40:21;11.20;80.80
62916;DHT22;49010;51.230;-2.306;2022-10-16T03:44:03;11.10;80.60
62916;DHT22;49010;51.230;-2.306;2022-10-16T03:47:44;11.10;80.70
62916;DHT22;49010;51.230;-2.306;2022-10-16T03:51:26;11.10;80.80
62916;DHT22;49010;51.230;-2.306;2022-10-16T03:55:09;11.00;80.70
62916;DHT22;49010;51.230;-2.306;2022-10-16T03:58:50;11.10;80.60
62916;DHT22;49010;51.230;-2.306;2022-10-16T04:02:32;11.00;80.50
62916;DHT22;49010;51.230;-2.306;2022-10-16T04:06:14;11.00;80.50
62916;DHT22;49010;51.230;-2.306;2022-10-16T04:09:56;11.00;80.60
62916;DHT22;49010;51.230;-2.306;2022-10-16T04:13:40;11.00;80.50
62916;DHT22;49010;51.230;-2.306;2022-10-16T04:17:23;11.00;80.70
62916;DHT22;49010;51.230;-2.306;2022-10-16T04:21:06;10.90;80.70
62916;DHT22;49010;51.230;-2.306;2022-10-16T04:24:48;10.90;81.30
62916;DHT22;49010;51.230;-2.306;2022-10-16T04:28:30;10.90;80.70
62916;DHT22;49010;51.230;-2.306;2022-10-16T04:32:12;10.90;80.70
62916;DHT22;49010;51.230;-2.306;2022-10-16T04:35:58;10.80;80.70
62916;DHT22;49010;51.230;-2.306;2022-10-16T04:39:40;10.80;80.90
62916;DHT22;49010;51.230;-2.306;2022-10-16T04:43:22;10.80;80.90
62916;DHT22;49010;51.230;-2.306;2022-10-16T04:47:04;10.70;80.90
62916;DHT22;49010;51.230;-2.306;2022-10-16T04:50:46;10.70;80.90
62916;DHT22;49010;51.230;-2.306;2022-10-16T04:54:35;10.70;81.10
62916;DHT22;49010;51.230;-2.306;2022-10-16T04:58:17;10.70;81.10
62916;DHT22;49010;51.230;-2.306;2022-10-16T05:01:59;10.60;81.20
62916;DHT22;49010;51.230;-2.306;2022-10-16T05:05:45;10.60;81.40
62916;DHT22;49010;51.230;-2.306;2022-10-16T05:09:27;10.50;81.50
62916;DHT22;49010;51.230;-2.306;2022-10-16T05:13:09;10.40;81.40
62916;DHT22;49010;51.230;-2.306;2022-10-16T05:16:52;10.40;81.60
62916;DHT22;49010;51.230;-2.306;2022-10-16T05:20:33;10.30;81.70
62916;DHT22;49010;51.230;-2.306;2022-10-16T05:24:15;10.20;81.70
62916;DHT22;49010;51.230;-2.306;2022-10-16T05:27:57;10.20;81.90
62916;DHT22;49010;51.230;-2.306;2022-10-16T05:31:39;10.10;82.30
62916;DHT22;49010;51.230;-2.306;2022-10-16T05:35:21;10.00;82.80
62916;DHT22;49010;51.230;-2.306;2022-10-16T05:39:03;9.90;83.10
62916;DHT22;49010;51.230;-2.306;2022-10-16T05:42:45;9.90;84.00
62916;DHT22;49010;51.230;-2.306;2022-10-16T05:46:27;9.90;84.50
62916;DHT22;49010;51.230;-2.306;2022-10-16T05:50:09;9.90;84.90
62916;DHT22;49010;51.230;-2.306;2022-10-16T05:53:52;9.90;85.40
62916;DHT22;49010;51.230;-2.306;2022-10-16T05:57:34;9.90;85.80
62916;DHT22;49010;51.230;-2.306;2022-10-16T06:01:18;9.90;86.20
62916;DHT22;49010;51.230;-2.306;2022-10-16T06:05:00;9.90;86.20
62916;DHT22;49010;51.230;-2.306;2022-10-16T06:08:43;9.90;86.30
62916;DHT22;49010;51.230;-2.306;2022-10-16T06:12:26;9.90;86.60
62916;DHT22;49010;51.230;-2.306;2022-10-16T06:16:09;9.90;86.90
62916;DHT22;49010;51.230;-2.306;2022-10-16T06:19:51;9.90;87.00
62916;DHT22;49010;51.230;-2.306;2022-10-16T06:23:33;9.90;86.90
62916;DHT22;49010;51.230;-2.306;2022-10-16T06:27:15;9.80;86.80
62916;DHT22;49010;51.230;-2.306;2022-10-16T06:31:01;9.80;86.70
62916;DHT22;49010;51.230;-2.306;2022-10-16T06:34:48;9.80;86.70
62916;DHT22;49010;51.230;-2.306;2022-10-16T06:38:30;9.70;86.90
62916;DHT22;49010;51.230;-2.306;2022-10-16T06:42:12;9.70;87.00
62916;DHT22;49010;51.230;-2.306;2022-10-16T06:45:56;9.70;87.00
62916;DHT22;49010;51.230;-2.306;2022-10-16T06:49:38;9.70;87.20
62916;DHT22;49010;51.230;-2.306;2022-10-16T06:53:19;9.70;87.20
62916;DHT22;49010;51.230;-2.306;2022-10-16T06:57:01;9.60;87.20
62916;DHT22;49010;51.230;-2.306;2022-10-16T07:00:43;9.60;87.30
62916;DHT22;49010;51.230;-2.306;2022-10-16T07:04:25;9.60;87.20
62916;DHT22;49010;51.230;-2.306;2022-10-16T07:08:08;9.50;87.20
62916;DHT22;49010;51.230;-2.306;2022-10-16T07:11:50;9.60;87.30
62916;DHT22;49010;51.230;-2.306;2022-10-16T07:15:32;9.60;87.30
62916;DHT22;49010;51.230;-2.306;2022-10-16T07:19:14;9.50;87.30
62916;DHT22;49010;51.230;-2.306;2022-10-16T07:22:58;9.50;87.60
62916;DHT22;49010;51.230;-2.306;2022-10-16T07:26:41;9.50;87.80
62916;DHT22;49010;51.230;-2.306;2022-10-16T07:30:23;9.60;88.00
62916;DHT22;49010;51.230;-2.306;2022-10-16T07:34:06;9.50;88.20
62916;DHT22;49010;51.230;-2.306;2022-10-16T07:37:47;9.60;88.30
62916;DHT22;49010;51.230;-2.306;2022-10-16T07:41:29;9.60;88.60
62916;DHT22;49010;51.230;-2.306;2022-10-16T07:45:11;9.60;88.80
62916;DHT22;49010;51.230;-2.306;2022-10-16T07:48:53;9.60;89.20
62916;DHT22;49010;51.230;-2.306;2022-10-16T07:52:35;9.70;89.30
62916;DHT22;49010;51.230;-2.306;2022-10-16T07:56:18;9.70;89.50
62916;DHT22;49010;51.230;-2.306;2022-10-16T08:00:00;9.70;89.50
62916;DHT22;49010;51.230;-2.306;2022-10-16T08:03:43;9.80;90.00
62916;DHT22;49010;51.230;-2.306;2022-10-16T08:07:25;9.90;89.80
62916;DHT22;49010;51.230;-2.306;2022-10-16T08:11:08;9.90;90.00
62916;DHT22;49010;51.230;-2.306;2022-10-16T08:14:50;10.00;90.00
62916;DHT22;49010;51.230;-2.306;2022-10-16T08:18:32;10.10;90.10
62916;DHT22;49010;51.230;-2.306;2022-10-16T08:22:14;10.10;90.10
62916;DHT22;49010;51.230;-2.306;2022-10-16T08:26:01;10.20;90.10
62916;DHT22;49010;51.230;-2.306;2022-10-16T08:29:43;10.30;90.20
62916;DHT22;49010;51.230;-2.306;2022-10-16T08:33:25;10.50;90.10
62916;DHT22;49010;51.230;-2.306;2022-10-16T08:37:07;10.70;90.30
62916;DHT22;49010;51.230;-2.306;2022-10-16T08:48:53;11.50;90.20
62916;DHT22;49010;51.230;-2.306;2022-10-16T08:52:40;11.90;89.20
62916;DHT22;49010;51.230;-2.306;2022-10-16T08:56:23;12.20;87.80
62916;DHT22;49010;51.230;-2.306;2022-10-16T09:00:13;12.50;87.60
62916;DHT22;49010;51.230;-2.306;2022-10-16T09:12:00;13.60;83.90
62916;DHT22;49010;51.230;-2.306;2022-10-16T09:15:54;13.90;82.70
62916;DHT22;49010;51.230;-2.306;2022-10-16T09:19:46;14.10;80.90
62916;DHT22;49010;51.230;-2.306;2022-10-16T09:23:35;14.40;80.50
62916;DHT22;49010;51.230;-2.306;2022-10-16T09:27:17;14.50;79.30
62916;DHT22;49010;51.230;-2.306;2022-10-16T09:30:59;14.70;79.40
62916;DHT22;49010;51.230;-2.306;2022-10-16T09:34:45;15.10;78.80
62916;DHT22;49010;51.230;-2.306;2022-10-16T09:42:17;16.40;74.50
62916;DHT22;49010;51.230;-2.306;2022-10-16T09:50:19;17.70;70.10
62916;DHT22;49010;51.230;-2.306;2022-10-16T09:57:55;19.80;63.80
62916;DHT22;49010;51.230;-2.306;2022-10-16T10:01:40;20.80;60.60
62916;DHT22;49010;51.230;-2.306;2022-10-16T10:05:27;21.70;56.50
62916;DHT22;49010;51.230;-2.306;2022-10-16T10:13:20;23.50;55.40
62916;DHT22;49010;51.230;-2.306;2022-10-16T10:20:57;25.00;48.00
62916;DHT22;49010;51.230;-2.306;2022-10-16T10:24:40;25.50;48.20
62916;DHT22;49010;51.230;-2.306;2022-10-16T10:33:09;26.70;44.00
62916;DHT22;49010;51.230;-2.306;2022-10-16T10:36:35;27.10;46.70
62916;DHT22;49010;51.230;-2.306;2022-10-16T10:49:08;28.30;49.80
62916;DHT22;49010;51.230;-2.306;2022-10-16T10:56:59;28.70;40.30
62916;DHT22;49010;51.230;-2.306;2022-10-16T11:09:06;29.60;42.10
62916;DHT22;49010;51.230;-2.306;2022-10-16T11:12:46;30.20;43.80
62916;DHT22;49010;51.230;-2.306;2022-10-16T11:16:39;30.60;35.30
62916;DHT22;49010;51.230;-2.306;2022-10-16T11:20:30;30.40;35.40
62916;DHT22;49010;51.230;-2.306;2022-10-16T11:24:25;30.30;37.10
62916;DHT22;49010;51.230;-2.306;2022-10-16T11:28:14;30.10;39.30
62916;DHT22;49010;51.230;-2.306;2022-10-16T11:32:01;30.10;37.30
62916;DHT22;49010;51.230;-2.306;2022-10-16T11:36:04;30.50;37.00
62916;DHT22;49010;51.230;-2.306;2022-10-16T11:39:50;31.00;38.40
62916;DHT22;49010;51.230;-2.306;2022-10-16T11:43:38;30.50;37.30
62916;DHT22;49010;51.230;-2.306;2022-10-16T11:47:40;29.90;38.40
62916;DHT22;49010;51.230;-2.306;2022-10-16T11:52:20;29.00;40.50
62916;DHT22;49010;51.230;-2.306;2022-10-16T11:56:05;28.70;44.50
62916;DHT22;49010;51.230;-2.306;2022-10-16T12:00:02;29.10;37.60
62916;DHT22;49010;51.230;-2.306;2022-10-16T12:07:46;28.40;38.80
62916;DHT22;49010;51.230;-2.306;2022-10-16T12:11:37;27.40;41.40
62916;DHT22;49010;51.230;-2.306;2022-10-16T12:19:22;26.90;41.80
62916;DHT22;49010;51.230;-2.306;2022-10-16T12:23:05;27.00;40.50
62916;DHT22;49010;51.230;-2.306;2022-10-16T12:26:48;27.20;40.00
62916;DHT22;49010;51.230;-2.306;2022-10-16T12:30:36;27.40;40.60
62916;DHT22;49010;51.230;-2.306;2022-10-16T12:34:42;27.50;41.00
62916;DHT22;49010;51.230;-2.306;2022-10-16T12:42:32;28.30;39.50
62916;DHT22;49010;51.230;-2.306;2022-10-16T12:49:57;28.30;37.70
62916;DHT22;49010;51.230;-2.306;2022-10-16T12:53:39;28.30;37.00
62916;DHT22;49010;51.230;-2.306;2022-10-16T13:13:56;30.10;36.30
62916;DHT22;49010;51.230;-2.306;2022-10-16T13:29:30;29.50;35.60
62916;DHT22;49010;51.230;-2.306;2022-10-16T13:33:16;29.00;37.30
62916;DHT22;49010;51.230;-2.306;2022-10-16T13:36:59;28.40;36.80
62916;DHT22;49010;51.230;-2.306;2022-10-16T13:40:58;27.70;37.30
62916;DHT22;49010;51.230;-2.306;2022-10-16T13:44:50;27.00;39.90
62916;DHT22;49010;51.230;-2.306;2022-10-16T13:48:33;26.50;40.00
62916;DHT22;49010;51.230;-2.306;2022-10-16T13:52:20;25.90;40.10
62916;DHT22;49010;51.230;-2.306;2022-10-16T13:56:04;25.10;41.50
62916;DHT22;49010;51.230;-2.306;2022-10-16T13:59:46;24.50;43.30
62916;DHT22;49010;51.230;-2.306;2022-10-16T14:03:29;24.00;44.60
62916;DHT22;49010;51.230;-2.306;2022-10-16T14:07:40;23.60;45.90
62916;DHT22;49010;51.230;-2.306;2022-10-16T14:11:24;23.30;47.30
62916;DHT22;49010;51.230;-2.306;2022-10-16T14:15:17;23.00;47.20
62916;DHT22;49010;51.230;-2.306;2022-10-16T14:19:02;22.60;48.00
62916;DHT22;49010;51.230;-2.306;2022-10-16T14:22:46;22.30;49.20
62916;DHT22;49010;51.230;-2.306;2022-10-16T14:26:28;21.90;50.10
62916;DHT22;49010;51.230;-2.306;2022-10-16T14:30:16;21.70;50.40
62916;DHT22;49010;51.230;-2.306;2022-10-16T14:33:59;21.50;51.20
62916;DHT22;49010;51.230;-2.306;2022-10-16T14:37:41;21.30;51.80
62916;DHT22;49010;51.230;-2.306;2022-10-16T14:41:23;21.10;52.60
62916;DHT22;49010;51.230;-2.306;2022-10-16T14:45:09;21.10;53.50
62916;DHT22;49010;51.230;-2.306;2022-10-16T14:48:59;21.00;53.70
62916;DHT22;49010;51.230;-2.306;2022-10-16T14:52:42;21.00;53.80
62916;DHT22;49010;51.230;-2.306;2022-10-16T14:56:29;20.90;53.80
62916;DHT22;49010;51.230;-2.306;2022-10-16T15:00:22;20.80;54.10
62916;DHT22;49010;51.230;-2.306;2022-10-16T15:04:04;20.70;54.80
62916;DHT22;49010;51.230;-2.306;2022-10-16T15:07:46;20.70;55.10
62916;DHT22;49010;51.230;-2.306;2022-10-16T15:11:28;20.60;55.70
62916;DHT22;49010;51.230;-2.306;2022-10-16T15:15:25;20.50;56.20
62916;DHT22;49010;51.230;-2.306;2022-10-16T15:19:08;20.50;56.40
62916;DHT22;49010;51.230;-2.306;2022-10-16T15:22:50;20.40;56.50
62916;DHT22;49010;51.230;-2.306;2022-10-16T15:26:32;20.20;56.90
62916;DHT22;49010;51.230;-2.306;2022-10-16T15:30:14;20.10;58.10
62916;DHT22;49010;51.230;-2.306;2022-10-16T15:33:57;20.10;57.90
62916;DHT22;49010;51.230;-2.306;2022-10-16T15:37:49;20.10;58.20
62916;DHT22;49010;51.230;-2.306;2022-10-16T15:41:31;20.00;58.40
62916;DHT22;49010;51.230;-2.306;2022-10-16T15:45:13;19.80;59.30
62916;DHT22;49010;51.230;-2.306;2022-10-16T15:48:57;19.60;59.70
62916;DHT22;49010;51.230;-2.306;2022-10-16T15:52:40;19.60;60.70
62916;DHT22;49010;51.230;-2.306;2022-10-16T15:56:23;19.60;61.30
62916;DHT22;49010;51.230;-2.306;2022-10-16T16:00:12;19.40;61.70
62916;DHT22;49010;51.230;-2.306;2022-10-16T16:03:55;19.20;62.70
62916;DHT22;49010;51.230;-2.306;2022-10-16T16:07:38;19.20;63.50
62916;DHT22;49010;51.230;-2.306;2022-10-16T16:11:21;19.20;63.90
62916;DHT22;49010;51.230;-2.306;2022-10-16T16:15:06;19.20;64.40
62916;DHT22;49010;51.230;-2.306;2022-10-16T16:18:48;19.00;66.30
62916;DHT22;49010;51.230;-2.306;2022-10-16T16:22:33;18.90;67.10
62916;DHT22;49010;51.230;-2.306;2022-10-16T16:26:23;18.70;68.40
62916;DHT22;49010;51.230;-2.306;2022-10-16T16:30:09;18.50;69.20
62916;DHT22;49010;51.230;-2.306;2022-10-16T16:33:57;18.30;70.40
62916;DHT22;49010;51.230;-2.306;2022-10-16T16:37:39;18.10;71.70
62916;DHT22;49010;51.230;-2.306;2022-10-16T16:41:24;17.90;72.80
62916;DHT22;49010;51.230;-2.306;2022-10-16T16:45:07;17.80;73.80
62916;DHT22;49010;51.230;-2.306;2022-10-16T16:48:49;17.70;74.40
62916;DHT22;49010;51.230;-2.306;2022-10-16T16:52:32;17.60;74.60
62916;DHT22;49010;51.230;-2.306;2022-10-16T16:56:14;17.60;75.40
62916;DHT22;49010;51.230;-2.306;2022-10-16T16:59:56;17.50;75.50
62916;DHT22;49010;51.230;-2.306;2022-10-16T17:03:41;17.40;76.20
62916;DHT22;49010;51.230;-2.306;2022-10-16T17:07:31;17.30;77.00
62916;DHT22;49010;51.230;-2.306;2022-10-16T17:11:25;17.20;78.80
62916;DHT22;49010;51.230;-2.306;2022-10-16T17:15:08;17.00;79.10
62916;DHT22;49010;51.230;-2.306;2022-10-16T17:18:50;17.00;79.50
62916;DHT22;49010;51.230;-2.306;2022-10-16T17:22:32;16.80;81.00
62916;DHT22;49010;51.230;-2.306;2022-10-16T17:26:15;16.70;82.20
62916;DHT22;49010;51.230;-2.306;2022-10-16T17:29:57;16.60;83.30
62916;DHT22;49010;51.230;-2.306;2022-10-16T17:33:40;16.40;85.30
62916;DHT22;49010;51.230;-2.306;2022-10-16T17:37:22;16.40;85.80
62916;DHT22;49010;51.230;-2.306;2022-10-16T17:41:16;16.40;87.40
62916;DHT22;49010;51.230;-2.306;2022-10-16T17:44:58;16.30;86.20
62916;DHT22;49010;51.230;-2.306;2022-10-16T17:48:45;16.30;88.00
62916;DHT22;49010;51.230;-2.306;2022-10-16T17:52:27;16.30;88.30
62916;DHT22;49010;51.230;-2.306;2022-10-16T17:56:11;16.30;90.00
62916;DHT22;49010;51.230;-2.306;2022-10-16T17:59:54;16.30;90.10
62916;DHT22;49010;51.230;-2.306;2022-10-16T18:03:36;16.30;90.40
62916;DHT22;49010;51.230;-2.306;2022-10-16T18:07:18;16.30;91.40
62916;DHT22;49010;51.230;-2.306;2022-10-16T18:11:00;16.30;91.60
62916;DHT22;49010;51.230;-2.306;2022-10-16T18:14:42;16.30;92.10
62916;DHT22;49010;51.230;-2.306;2022-10-16T18:18:23;16.30;92.10
62916;DHT22;49010;51.230;-2.306;2022-10-16T18:22:10;16.40;92.70
62916;DHT22;49010;51.230;-2.306;2022-10-16T18:25:52;16.50;92.80
62916;DHT22;49010;51.230;-2.306;2022-10-16T18:29:34;16.40;93.20
62916;DHT22;49010;51.230;-2.306;2022-10-16T18:33:16;16.50;93.50
62916;DHT22;49010;51.230;-2.306;2022-10-16T18:36:58;16.50;93.60
62916;DHT22;49010;51.230;-2.306;2022-10-16T18:40:40;16.50;94.10
62916;DHT22;49010;51.230;-2.306;2022-10-16T18:44:22;16.50;94.50
62916;DHT22;49010;51.230;-2.306;2022-10-16T18:48:04;16.40;94.50
62916;DHT22;49010;51.230;-2.306;2022-10-16T18:51:46;16.30;94.80
62916;DHT22;49010;51.230;-2.306;2022-10-16T18:55:29;16.40;94.80
62916;DHT22;49010;51.230;-2.306;2022-10-16T18:59:11;16.30;94.80
62916;DHT22;49010;51.230;-2.306;2022-10-16T19:02:53;16.30;95.10
62916;DHT22;49010;51.230;-2.306;2022-10-16T19:06:38;16.30;95.40
62916;DHT22;49010;51.230;-2.306;2022-10-16T19:10:20;16.40;95.60
62916;DHT22;49010;51.230;-2.306;2022-10-16T19:14:02;16.40;95.60
62916;DHT22;49010;51.230;-2.306;2022-10-16T19:17:44;16.40;95.80
62916;DHT22;49010;51.230;-2.306;2022-10-16T19:21:27;16.40;96.00
62916;DHT22;49010;51.230;-2.306;2022-10-16T19:25:09;16.40;96.30
62916;DHT22;49010;51.230;-2.306;2022-10-16T19:28:53;16.40;96.50
62916;DHT22;49010;51.230;-2.306;2022-10-16T19:32:35;16.40;96.80
62916;DHT22;49010;51.230;-2.306;2022-10-16T19:36:23;16.50;97.10
62916;DHT22;49010;51.230;-2.306;2022-10-16T19:40:06;16.50;97.00
62916;DHT22;49010;51.230;-2.306;2022-10-16T19:43:48;16.50;97.20
62916;DHT22;49010;51.230;-2.306;2022-10-16T19:47:30;16.50;97.80
62916;DHT22;49010;51.230;-2.306;2022-10-16T19:51:14;16.50;98.00
62916;DHT22;49010;51.230;-2.306;2022-10-16T19:54:57;16.60;97.60
62916;DHT22;49010;51.230;-2.306;2022-10-16T19:58:39;16.60;98.30
62916;DHT22;49010;51.230;-2.306;2022-10-16T20:02:20;16.60;98.30
62916;DHT22;49010;51.230;-2.306;2022-10-16T20:06:02;16.70;98.60
62916;DHT22;49010;51.230;-2.306;2022-10-16T20:09:47;16.70;98.70
62916;DHT22;49010;51.230;-2.306;2022-10-16T20:13:29;16.80;98.90
62916;DHT22;49010;51.230;-2.306;2022-10-16T20:17:12;16.90;98.80
62916;DHT22;49010;51.230;-2.306;2022-10-16T20:20:54;16.80;98.90
62916;DHT22;49010;51.230;-2.306;2022-10-16T20:24:36;16.90;98.90
62916;DHT22;49010;51.230;-2.306;2022-10-16T20:28:20;16.90;99.00
62916;DHT22;49010;51.230;-2.306;2022-10-16T20:32:02;16.90;98.90
62916;DHT22;49010;51.230;-2.306;2022-10-16T20:35:46;16.90;99.10
62916;DHT22;49010;51.230;-2.306;2022-10-16T20:39:28;16.90;99.00
62916;DHT22;49010;51.230;-2.306;2022-10-16T20:43:12;17.00;98.80
62916;DHT22;49010;51.230;-2.306;2022-10-16T20:46:54;16.90;98.80
62916;DHT22;49010;51.230;-2.306;2022-10-16T20:50:37;16.90;98.70
62916;DHT22;49010;51.230;-2.306;2022-10-16T20:54:19;17.00;98.80
62916;DHT22;49010;51.230;-2.306;2022-10-16T20:58:02;17.00;98.80
62916;DHT22;49010;51.230;-2.306;2022-10-16T21:01:44;16.90;99.00
62916;DHT22;49010;51.230;-2.306;2022-10-16T21:05:26;17.00;98.90
62916;DHT22;49010;51.230;-2.306;2022-10-16T21:09:10;16.90;98.70
62916;DHT22;49010;51.230;-2.306;2022-10-16T21:12:53;16.90;98.60
62916;DHT22;49010;51.230;-2.306;2022-10-16T21:16:37;16.90;98.40
62916;DHT22;49010;51.230;-2.306;2022-10-16T21:20:19;16.80;98.50
62916;DHT22;49010;51.230;-2.306;2022-10-16T21:24:01;16.80;98.10
62916;DHT22;49010;51.230;-2.306;2022-10-16T21:27:43;16.80;98.40
62916;DHT22;49010;51.230;-2.306;2022-10-16T21:31:25;16.70;98.50
62916;DHT22;49010;51.230;-2.306;2022-10-16T21:35:07;16.70;98.60
62916;DHT22;49010;51.230;-2.306;2022-10-16T21:38:50;16.70;98.60
62916;DHT22;49010;51.230;-2.306;2022-10-16T21:42:32;16.70;98.50
62916;DHT22;49010;51.230;-2.306;2022-10-16T21:46:15;16.80;98.70
62916;DHT22;49010;51.230;-2.306;2022-10-16T21:49:57;16.80;98.50
62916;DHT22;49010;51.230;-2.306;2022-10-16T21:53:40;16.80;98.20
62916;DHT22;49010;51.230;-2.306;2022-10-16T21:57:22;16.70;97.90
62916;DHT22;49010;51.230;-2.306;2022-10-16T22:01:13;16.70;97.70
62916;DHT22;49010;51.230;-2.306;2022-10-16T22:04:55;16.70;97.60
62916;DHT22;49010;51.230;-2.306;2022-10-16T22:08:37;16.60;97.50
62916;DHT22;49010;51.230;-2.306;2022-10-16T22:12:19;16.60;97.50
62916;DHT22;49010;51.230;-2.306;2022-10-16T22:16:02;16.60;97.50
62916;DHT22;49010;51.230;-2.306;2022-10-16T22:19:44;16.60;97.40
62916;DHT22;49010;51.230;-2.306;2022-10-16T22:23:26;16.50;97.30
62916;DHT22;49010;51.230;-2.306;2022-10-16T22:27:08;16.50;97.30
62916;DHT22;49010;51.230;-2.306;2022-10-16T22:30:50;16.50;97.10
62916;DHT22;49010;51.230;-2.306;2022-10-16T22:34:32;16.50;97.00
62916;DHT22;49010;51.230;-2.306;2022-10-16T22:38:13;16.50;97.00
62916;DHT22;49010;51.230;-2.306;2022-10-16T22:41:55;16.40;96.90
62916;DHT22;49010;51.230;-2.306;2022-10-16T22:45:37;16.40;96.90
62916;DHT22;49010;51.230;-2.306;2022-10-16T22:49:19;16.40;96.90
62916;DHT22;49010;51.230;-2.306;2022-10-16T22:53:01;16.40;96.90
62916;DHT22;49010;51.230;-2.306;2022-10-16T22:56:43;16.30;96.70
62916;DHT22;49010;51.230;-2.306;2022-10-16T23:00:25;16.30;96.50
62916;DHT22;49010;51.230;-2.306;2022-10-16T23:04:07;16.30;96.30
62916;DHT22;49010;51.230;-2.306;2022-10-16T23:07:49;16.30;96.30
62916;DHT22;49010;51.230;-2.306;2022-10-16T23:11:32;16.30;96.20
62916;DHT22;49010;51.230;-2.306;2022-10-16T23:15:14;16.20;96.10
62916;DHT22;49010;51.230;-2.306;2022-10-16T23:18:57;16.20;96.10
62916;DHT22;49010;51.230;-2.306;2022-10-16T23:22:39;16.20;95.90
62916;DHT22;49010;51.230;-2.306;2022-10-16T23:26:23;16.20;95.80
62916;DHT22;49010;51.230;-2.306;2022-10-16T23:30:06;16.10;95.80
62916;DHT22;49010;51.230;-2.306;2022-10-16T23:33:48;16.10;95.70
62916;DHT22;49010;51.230;-2.306;2022-10-16T23:37:29;16.00;95.80
62916;DHT22;49010;51.230;-2.306;2022-10-16T23:41:12;16.00;96.00
62916;DHT22;49010;51.230;-2.306;2022-10-16T23:44:54;16.10;96.00
62916;DHT22;49010;51.230;-2.306;2022-10-16T23:48:36;16.10;95.90
62916;DHT22;49010;51.230;-2.306;2022-10-16T23:52:18;16.10;95.90
62916;DHT22;49010;51.230;-2.306;2022-10-16T23:56:00;16.10;95.90
62916;DHT22;49010;51.230;-2.306;2022-10-16T23:59:42;16.10;95.90
